createdAt,value
2022-08-17T00:00:43.263Z,5.63
2022-08-17T00:03:39.366Z,5.50
2022-08-17T00:06:08.492Z,4.28
2022-08-17T00:08:49.375Z,5.15
2022-08-17T00:11:19.823Z,5.85
2022-08-17T00:13:56.375Z,6.00
2022-08-17T00:16:53.423Z,6.05
2022-08-17T00:19:32.370Z,6.63
2022-08-17T00:22:32.857Z,5.97
2022-08-17T00:24:53.367Z,6.22
2022-08-17T00:27:26.372Z,4.78
2022-08-17T00:29:59.388Z,6.13
2022-08-17T00:33:15.479Z,6.78
2022-08-17T00:35:22.387Z,5.60
2022-08-17T00:37:50.089Z,4.15
2022-08-17T00:40:24.725Z,5.32
2022-08-17T00:42:52.009Z,4.18
2022-08-17T00:45:26.409Z,4.30
2022-08-17T00:47:59.383Z,5.13
2022-08-17T00:50:26.055Z,5.55
2022-08-17T00:53:02.379Z,4.93
2022-08-17T00:55:29.079Z,4.85
2022-08-17T00:58:07.395Z,4.97
2022-08-17T01:00:38.026Z,5.10
2022-08-17T01:03:20.391Z,5.40
2022-08-17T01:05:56.428Z,6.30
2022-08-17T01:08:34.406Z,6.38
2022-08-17T01:11:29.402Z,6.40
2022-08-17T01:13:56.073Z,6.28
2022-08-17T01:16:35.417Z,6.30
2022-08-17T01:19:08.082Z,6.10
2022-08-17T01:22:03.409Z,4.70
2022-08-17T01:24:37.391Z,3.92
2022-08-17T01:27:10.293Z,3.67
2022-08-17T01:29:46.406Z,4.63
2022-08-17T01:32:13.164Z,5.13
2022-08-17T01:34:50.198Z,6.13
2022-08-17T01:37:19.302Z,6.78
2022-08-17T01:39:58.601Z,6.07
2022-08-17T01:42:45.489Z,5.82
2022-08-17T01:45:26.400Z,4.88
2022-08-17T01:48:00.441Z,6.07
2022-08-17T01:50:36.418Z,5.80
2022-08-17T01:53:08.901Z,4.00
2022-08-17T01:55:55.481Z,3.95
2022-08-17T01:58:29.411Z,3.90
2022-08-17T02:01:03.794Z,5.15
2022-08-17T02:03:37.478Z,4.70
2022-08-17T02:06:06.303Z,5.43
2022-08-17T02:09:02.213Z,4.45
2022-08-17T02:11:38.400Z,3.80
2022-08-17T02:14:20.428Z,3.65
2022-08-17T02:16:53.434Z,5.15
2022-08-17T02:19:34.444Z,4.38
2022-08-17T02:22:01.227Z,4.77
2022-08-17T02:25:00.952Z,4.18
2022-08-17T02:27:42.430Z,4.80
2022-08-17T02:30:59.915Z,4.35
2022-08-17T02:33:25.500Z,4.80
2022-08-17T02:36:27.441Z,6.28
2022-08-17T02:39:00.693Z,6.10
2022-08-17T02:41:34.480Z,6.25
2022-08-17T02:44:07.612Z,5.43
2022-08-17T02:46:41.498Z,6.20
2022-08-17T02:49:14.461Z,4.55
2022-08-17T02:51:41.232Z,4.55
2022-08-17T02:54:39.888Z,4.60
2022-08-17T02:57:09.466Z,4.00
2022-08-17T02:59:36.320Z,6.00
2022-08-17T03:02:04.860Z,6.93
2022-08-17T03:04:38.471Z,6.35
2022-08-17T03:07:12.487Z,6.88
2022-08-17T03:09:39.187Z,7.30
2022-08-17T03:12:15.507Z,4.80
2022-08-17T03:14:43.468Z,6.30
2022-08-17T03:17:11.190Z,6.65
2022-08-17T03:19:50.502Z,8.13
2022-08-17T03:22:35.343Z,7.63
2022-08-17T03:25:04.885Z,6.63
2022-08-17T03:27:44.676Z,5.68
2022-08-17T03:30:22.478Z,7.20
2022-08-17T03:32:57.509Z,7.05
2022-08-17T03:35:34.508Z,7.13
2022-08-17T03:38:08.501Z,7.38
2022-08-17T03:40:56.488Z,5.60
2022-08-17T03:43:29.506Z,4.50
2022-08-17T03:46:28.528Z,5.38
2022-08-17T03:49:27.495Z,6.43
2022-08-17T03:52:20.518Z,6.85
2022-08-17T03:55:12.492Z,7.10
2022-08-17T03:57:46.516Z,6.57
2022-08-17T04:00:20.502Z,6.00
2022-08-17T04:02:47.193Z,4.57
2022-08-17T04:05:21.517Z,3.97
2022-08-17T04:07:54.509Z,4.57
2022-08-17T04:10:24.756Z,4.38
2022-08-17T04:15:30.003Z,3.78
2022-08-17T04:18:03.786Z,3.55
2022-08-17T04:20:37.525Z,3.92
2022-08-17T04:23:12.525Z,4.28
2022-08-17T04:25:50.523Z,4.90
2022-08-17T04:28:19.004Z,6.20
2022-08-17T04:30:53.531Z,5.57
2022-08-17T04:33:23.976Z,5.72
2022-08-17T04:36:03.539Z,6.97
2022-08-17T04:38:34.178Z,7.00
2022-08-17T04:41:25.535Z,6.78
2022-08-17T04:43:55.972Z,8.20
2022-08-17T04:46:32.542Z,9.20
2022-08-17T04:49:07.533Z,8.82
2022-08-17T04:51:55.654Z,8.88
2022-08-17T04:54:33.589Z,8.35
2022-08-17T04:57:06.551Z,7.78
2022-08-17T04:59:39.557Z,7.55
2022-08-17T05:02:12.781Z,8.65
2022-08-17T05:04:41.712Z,7.68
2022-08-17T05:07:14.748Z,7.30
2022-08-17T05:09:42.741Z,7.18
2022-08-17T05:12:09.870Z,8.15
2022-08-17T05:14:45.552Z,7.00
2022-08-17T05:17:18.572Z,7.32
2022-08-17T05:19:50.009Z,6.00
2022-08-17T05:22:24.569Z,8.27
2022-08-17T05:24:53.980Z,8.05
2022-08-17T05:27:29.787Z,7.70
2022-08-17T05:30:02.427Z,6.68
2022-08-17T05:32:38.805Z,8.70
2022-08-17T05:35:07.277Z,9.65
2022-08-17T05:37:40.563Z,7.40
2022-08-17T05:40:14.570Z,8.07
2022-08-17T05:42:41.554Z,8.85
2022-08-17T05:45:09.874Z,7.05
2022-08-17T05:47:44.567Z,6.60
2022-08-17T05:50:26.092Z,8.20
2022-08-17T05:53:11.582Z,7.40
2022-08-17T05:55:51.175Z,5.25
2022-08-17T05:58:34.574Z,6.15
2022-08-17T06:01:10.696Z,5.90
2022-08-17T06:04:03.997Z,5.93
2022-08-17T06:06:58.586Z,5.75
2022-08-17T06:09:34.632Z,4.63
2022-08-17T06:12:32.580Z,7.93
2022-08-17T06:15:31.587Z,8.80
2022-08-17T06:18:14.772Z,12.65
2022-08-17T06:21:04.604Z,9.35
2022-08-17T06:23:39.010Z,8.70
2022-08-17T06:26:21.687Z,8.32
2022-08-17T06:29:21.638Z,6.95
2022-08-17T06:31:55.615Z,5.93
2022-08-17T06:34:28.609Z,6.43
2022-08-17T06:37:18.524Z,6.97
2022-08-17T06:40:22.630Z,7.75
2022-08-17T06:43:09.866Z,5.32
2022-08-17T06:46:17.594Z,5.55
2022-08-17T06:48:58.606Z,5.85
2022-08-17T06:51:49.636Z,4.50
2022-08-17T06:54:41.636Z,5.10
2022-08-17T07:00:00.651Z,5.60
2022-08-17T07:02:53.538Z,4.63
2022-08-17T07:05:24.023Z,4.70
2022-08-17T07:08:13.630Z,4.75
2022-08-17T07:11:00.399Z,4.20
2022-08-17T07:13:39.639Z,4.53
2022-08-17T07:16:20.399Z,4.85
2022-08-17T07:18:56.657Z,4.28
2022-08-17T07:21:44.621Z,4.75
2022-08-17T07:24:26.309Z,4.03
2022-08-17T07:27:33.630Z,4.68
2022-08-17T07:30:31.823Z,5.32
2022-08-17T07:33:24.680Z,6.25
2022-08-17T07:35:59.635Z,5.68
2022-08-17T07:38:28.969Z,5.75
2022-08-17T07:41:08.738Z,5.60
2022-08-17T07:43:47.651Z,5.70
2022-08-17T07:46:39.937Z,5.78
2022-08-17T07:49:15.636Z,5.38
2022-08-17T07:51:45.790Z,5.75
2022-08-17T07:54:21.663Z,5.50
2022-08-17T07:57:03.649Z,6.18
2022-08-17T07:59:36.114Z,6.13
2022-08-17T08:02:44.642Z,5.10
2022-08-17T08:05:16.361Z,7.53
2022-08-17T08:08:32.665Z,6.35
2022-08-17T08:11:03.405Z,6.03
2022-08-17T08:13:38.643Z,6.77
2022-08-17T08:16:17.265Z,7.82
2022-08-17T08:18:56.901Z,5.88
2022-08-17T08:21:42.665Z,4.88
2022-08-17T08:24:32.321Z,5.07
2022-08-17T08:27:14.676Z,4.43
2022-08-17T08:29:53.402Z,4.75
2022-08-17T08:32:52.683Z,4.38
2022-08-17T08:35:47.742Z,4.05
2022-08-17T08:38:33.679Z,4.30
2022-08-17T08:41:12.074Z,3.92
2022-08-17T08:44:15.702Z,3.90
2022-08-17T08:46:52.392Z,4.22
2022-08-17T08:50:06.946Z,4.10
2022-08-17T08:52:58.676Z,3.80
2022-08-17T08:55:50.682Z,3.53
2022-08-17T08:58:50.695Z,3.83
2022-08-17T09:01:40.708Z,3.72
2022-08-17T09:04:24.710Z,3.53
2022-08-17T09:07:29.690Z,3.67
2022-08-17T09:10:12.146Z,3.20
2022-08-17T09:13:18.692Z,3.67
2022-08-17T09:16:05.679Z,3.50
2022-08-17T09:19:02.414Z,3.80
2022-08-17T09:22:02.987Z,3.80
2022-08-17T09:24:43.548Z,3.78
2022-08-17T09:27:29.688Z,3.97
2022-08-17T09:30:00.780Z,3.30
2022-08-17T09:32:45.714Z,3.55
2022-08-17T09:35:19.346Z,3.45
2022-08-17T09:38:17.711Z,3.20
2022-08-17T09:41:00.701Z,3.00
2022-08-17T09:43:44.655Z,3.00
2022-08-17T09:46:31.709Z,3.22
2022-08-17T09:49:23.169Z,3.65
2022-08-17T09:52:08.734Z,3.40
2022-08-17T09:54:45.697Z,3.30
2022-08-17T09:57:32.782Z,3.58
2022-08-17T10:00:24.728Z,2.97
2022-08-17T10:03:22.723Z,3.65
2022-08-17T10:06:22.185Z,3.42
2022-08-17T10:08:58.345Z,3.55
2022-08-17T10:12:09.214Z,3.60
2022-08-17T10:14:55.071Z,3.78
2022-08-17T10:17:39.525Z,3.40
2022-08-17T10:20:58.711Z,3.88
2022-08-17T10:23:53.739Z,3.30
2022-08-17T10:26:40.334Z,2.83
2022-08-17T10:29:47.494Z,2.97
2022-08-17T10:32:50.733Z,3.47
2022-08-17T10:35:41.222Z,3.58
2022-08-17T10:38:33.025Z,3.30
2022-08-17T10:41:16.217Z,3.85
2022-08-17T10:44:39.013Z,3.00
2022-08-17T10:47:08.097Z,3.88
2022-08-17T10:49:54.027Z,3.67
2022-08-17T10:52:21.864Z,3.38
2022-08-17T10:54:59.015Z,4.15
2022-08-17T10:57:41.913Z,3.60
2022-08-17T11:00:16.789Z,3.70
2022-08-17T11:02:51.160Z,4.43
2022-08-17T11:05:49.743Z,3.70
2022-08-17T11:08:57.435Z,4.00
2022-08-17T11:11:44.753Z,4.15
2022-08-17T11:14:42.772Z,3.75
2022-08-17T11:17:27.755Z,3.72
2022-08-17T11:20:19.197Z,3.88
2022-08-17T11:23:15.768Z,3.17
2022-08-17T11:25:57.765Z,3.60
2022-08-17T11:28:44.435Z,3.70
2022-08-17T11:31:41.810Z,3.70
2022-08-17T11:34:19.172Z,3.55
2022-08-17T11:36:58.792Z,3.55
2022-08-17T11:39:51.375Z,3.90
2022-08-17T11:42:52.923Z,3.65
2022-08-17T11:45:44.781Z,3.22
2022-08-17T11:49:00.828Z,4.00
2022-08-17T11:51:59.384Z,2.80
2022-08-17T11:54:38.860Z,2.88
2022-08-17T11:57:32.774Z,3.67
2022-08-17T12:00:10.582Z,3.17
2022-08-17T12:02:50.790Z,4.00
2022-08-17T12:05:17.466Z,2.75
2022-08-17T12:07:59.858Z,3.30
2022-08-17T12:10:32.863Z,3.65
2022-08-17T12:13:12.816Z,3.47
2022-08-17T12:15:48.598Z,3.60
2022-08-17T12:18:41.828Z,3.45
2022-08-17T12:21:23.794Z,3.45
2022-08-17T12:24:14.788Z,3.60
2022-08-17T12:26:44.027Z,3.13
2022-08-17T12:29:35.550Z,2.97
2022-08-17T12:32:07.141Z,2.78
2022-08-17T12:34:48.812Z,2.70
2022-08-17T12:37:31.805Z,2.67
2022-08-17T12:40:16.602Z,2.70
2022-08-17T12:43:10.802Z,3.35
2022-08-17T12:45:45.813Z,2.50
2022-08-17T12:48:28.824Z,2.40
2022-08-17T12:51:07.824Z,2.97
2022-08-17T12:53:35.768Z,2.92
2022-08-17T12:56:22.811Z,2.35
2022-08-17T12:58:54.033Z,3.03
2022-08-17T13:04:06.844Z,2.60
2022-08-17T13:06:35.681Z,2.88
2022-08-17T13:09:17.827Z,2.25
2022-08-17T13:11:50.865Z,2.50
2022-08-17T13:14:26.847Z,2.50
2022-08-17T13:17:08.345Z,2.78
2022-08-17T13:19:55.840Z,2.22
2022-08-17T13:22:24.975Z,3.00
2022-08-17T13:25:03.406Z,2.00
2022-08-17T13:27:31.530Z,2.58
2022-08-17T13:30:08.863Z,2.58
2022-08-17T13:32:54.882Z,2.28
2022-08-17T13:35:47.675Z,2.42
2022-08-17T13:38:54.850Z,2.55
2022-08-17T13:41:38.083Z,2.65
2022-08-17T13:44:45.849Z,2.78
2022-08-17T13:47:20.281Z,2.67
2022-08-17T13:49:55.861Z,2.78
2022-08-17T13:52:40.873Z,2.85
2022-08-17T13:55:22.548Z,2.72
2022-08-17T13:58:04.142Z,2.53
2022-08-17T14:00:36.680Z,2.70
2022-08-17T14:03:11.858Z,2.58
2022-08-17T14:05:39.432Z,2.72
2022-08-17T14:08:12.840Z,2.60
2022-08-17T14:10:45.862Z,2.70
2022-08-17T14:13:19.429Z,3.00
2022-08-17T14:15:54.987Z,2.90
2022-08-17T14:18:50.512Z,2.60
2022-08-17T14:21:23.843Z,3.00
2022-08-17T14:23:57.877Z,2.75
2022-08-17T14:26:24.573Z,2.70
2022-08-17T14:28:57.894Z,2.80
2022-08-17T14:31:35.450Z,2.67
2022-08-17T14:34:17.885Z,2.58
2022-08-17T14:36:51.875Z,2.80
2022-08-17T14:39:33.981Z,3.15
2022-08-17T14:42:01.266Z,2.75
2022-08-17T14:44:40.911Z,2.60
2022-08-17T14:47:12.164Z,3.13
2022-08-17T14:49:38.887Z,3.13
2022-08-17T14:52:12.922Z,2.90
2022-08-17T14:54:45.132Z,3.08
2022-08-17T14:57:22.903Z,3.15
2022-08-17T15:00:05.895Z,2.78
2022-08-17T15:02:55.949Z,3.28
2022-08-17T15:05:32.908Z,3.10
2022-08-17T15:08:01.202Z,3.05
2022-08-17T15:10:35.929Z,3.28
2022-08-17T15:13:02.981Z,2.90
2022-08-17T15:15:30.754Z,3.08
2022-08-17T15:18:04.210Z,3.08
2022-08-17T15:20:33.871Z,3.40
2022-08-17T15:23:00.555Z,3.20
2022-08-17T15:25:37.903Z,3.28
2022-08-17T15:28:10.936Z,3.50
2022-08-17T15:30:42.836Z,3.05
2022-08-17T15:33:24.911Z,3.20
2022-08-17T15:35:52.218Z,3.28
2022-08-17T15:38:19.410Z,3.35
2022-08-17T15:40:54.938Z,3.53
2022-08-17T15:43:33.909Z,3.63
2022-08-17T15:46:16.906Z,3.50
2022-08-17T15:48:49.097Z,3.47
2022-08-17T15:51:30.930Z,3.22
2022-08-17T15:54:18.656Z,3.72
2022-08-17T15:56:49.400Z,3.78
2022-08-17T15:59:22.911Z,2.97
2022-08-17T16:03:01.470Z,3.97
2022-08-17T16:04:44.146Z,3.30
2022-08-17T16:07:17.977Z,3.45
2022-08-17T16:09:51.955Z,4.05
2022-08-17T16:12:21.150Z,3.58
2022-08-17T16:14:55.937Z,3.58
2022-08-17T16:17:39.223Z,3.70
2022-08-17T16:20:21.100Z,3.33
2022-08-17T16:22:50.215Z,3.60
2022-08-17T16:25:47.153Z,4.15
2022-08-17T16:28:22.933Z,3.78
2022-08-17T16:31:09.323Z,4.25
2022-08-17T16:34:15.788Z,3.70
2022-08-17T16:36:31.649Z,4.15
2022-08-17T16:39:06.012Z,4.20
2022-08-17T16:41:48.306Z,3.50
2022-08-17T16:44:27.002Z,3.95
2022-08-17T16:46:53.740Z,4.10
2022-08-17T16:49:37.426Z,3.78
2022-08-17T16:52:15.960Z,4.28
2022-08-17T16:55:01.516Z,3.60
2022-08-17T16:57:35.943Z,3.70
2022-08-17T17:00:04.572Z,3.78
2022-08-17T17:02:43.970Z,4.53
2022-08-17T17:05:38.633Z,3.88
2022-08-17T17:08:18.967Z,4.93
2022-08-17T17:10:51.311Z,6.45
2022-08-17T17:13:31.975Z,6.50
2022-08-17T17:16:21.430Z,7.22
2022-08-17T17:19:34.906Z,7.53
2022-08-17T17:22:38.967Z,8.27
2022-08-17T17:25:19.202Z,8.32
2022-08-17T17:28:13.979Z,8.27
2022-08-17T17:31:19.997Z,8.02
2022-08-17T17:34:04.277Z,9.15
2022-08-17T17:36:46.968Z,8.15
2022-08-17T17:39:30.009Z,8.75
2022-08-17T17:42:02.551Z,9.18
2022-08-17T17:44:41.992Z,8.50
2022-08-17T17:47:09.923Z,8.30
2022-08-17T17:49:47.989Z,9.32
2022-08-17T17:52:19.179Z,8.70
2022-08-17T17:55:20.031Z,8.82
2022-08-17T17:58:12.031Z,8.23
2022-08-17T18:01:15.006Z,9.35
2022-08-17T18:04:20.675Z,9.05
2022-08-17T18:07:21.990Z,9.80
2022-08-17T18:10:29.825Z,9.07
2022-08-17T18:13:10.376Z,9.65
2022-08-17T18:15:59.022Z,10.30
2022-08-17T18:18:44.284Z,9.70
2022-08-17T18:21:16.312Z,10.95
2022-08-17T18:23:59.016Z,10.75
2022-08-17T18:26:55.269Z,10.43
2022-08-17T18:29:35.019Z,11.63
2022-08-17T18:32:31.002Z,11.25
2022-08-17T18:35:01.832Z,11.02
2022-08-17T18:37:40.030Z,11.10
2022-08-17T18:40:26.023Z,11.88
2022-08-17T18:43:09.065Z,12.00
2022-08-17T18:45:42.023Z,11.43
2022-08-17T18:48:35.015Z,11.30
2022-08-17T18:51:48.035Z,11.02
2022-08-17T18:54:28.014Z,10.32
2022-08-17T18:57:15.054Z,11.07
2022-08-17T18:59:56.031Z,11.05
2022-08-17T19:02:45.275Z,12.13
2022-08-17T19:05:43.774Z,11.25
2022-08-17T19:08:35.060Z,10.77
2022-08-17T19:11:04.830Z,11.00
2022-08-17T19:13:46.052Z,12.35
2022-08-17T19:16:38.110Z,10.38
2022-08-17T19:19:23.416Z,11.18
2022-08-17T19:22:12.308Z,10.40
2022-08-17T19:24:48.852Z,10.50
2022-08-17T19:27:22.718Z,11.15
2022-08-17T19:30:03.922Z,10.45
2022-08-17T19:32:35.731Z,11.57
2022-08-17T19:35:15.027Z,11.85
2022-08-17T19:40:54.592Z,12.60
2022-08-17T19:43:47.055Z,12.40
2022-08-17T19:46:29.788Z,10.25
2022-08-17T19:49:33.191Z,11.43
2022-08-17T19:52:36.286Z,11.43
2022-08-17T19:55:22.099Z,11.10
2022-08-17T19:58:06.058Z,11.30
2022-08-17T20:00:43.073Z,10.85
2022-08-17T20:03:42.642Z,12.43
2022-08-17T20:06:17.084Z,11.57
2022-08-17T20:09:14.931Z,11.63
2022-08-17T20:12:01.071Z,12.55
2022-08-17T20:14:53.535Z,11.35
2022-08-17T20:17:31.074Z,12.32
2022-08-17T20:20:08.092Z,12.55
2022-08-17T20:23:12.299Z,12.00
2022-08-17T20:26:06.072Z,12.13
2022-08-17T20:28:35.449Z,12.07
2022-08-17T20:31:15.092Z,11.93
2022-08-17T20:33:48.866Z,12.93
2022-08-17T20:36:29.093Z,12.18
2022-08-17T20:38:58.293Z,11.77
2022-08-17T20:41:41.098Z,13.40
2022-08-17T20:44:21.156Z,12.05
2022-08-17T20:47:05.450Z,11.32
2022-08-17T20:49:54.102Z,11.55
2022-08-17T20:52:42.122Z,11.38
2022-08-17T20:55:30.255Z,10.48
2022-08-17T20:58:07.099Z,10.15
2022-08-17T21:00:56.008Z,10.45
2022-08-17T21:03:50.973Z,9.32
2022-08-17T21:06:29.131Z,9.82
2022-08-17T21:09:18.815Z,10.98
2022-08-17T21:12:05.737Z,12.10
2022-08-17T21:15:06.126Z,10.65
2022-08-17T21:17:42.202Z,10.73
2022-08-17T21:20:37.206Z,10.48
2022-08-17T21:23:23.114Z,12.50
2022-08-17T21:26:20.120Z,27.67
2022-08-17T21:29:32.443Z,15.18
2022-08-17T21:32:10.122Z,16.02
2022-08-17T21:35:27.111Z,18.67
2022-08-17T21:38:11.105Z,17.10
2022-08-17T21:40:37.841Z,16.90
2022-08-17T21:43:30.125Z,14.25
2022-08-17T21:46:01.330Z,15.77
2022-08-17T21:48:37.146Z,15.65
2022-08-17T21:51:20.167Z,15.35
2022-08-17T21:54:35.131Z,16.55
2022-08-17T21:57:11.127Z,16.40
2022-08-17T21:59:46.144Z,17.20
2022-08-17T22:02:42.695Z,14.98
2022-08-17T22:05:20.168Z,16.67
2022-08-17T22:07:50.753Z,17.42
2022-08-17T22:10:56.163Z,13.80
2022-08-17T22:13:36.175Z,15.93
2022-08-17T22:16:29.032Z,15.65
2022-08-17T22:18:58.130Z,18.98
2022-08-17T22:21:32.142Z,16.13
2022-08-17T22:24:05.405Z,17.15
2022-08-17T22:27:06.171Z,16.20
2022-08-17T22:29:53.262Z,18.35
2022-08-17T22:32:50.174Z,17.45
2022-08-17T22:35:25.145Z,16.67
2022-08-17T22:37:52.062Z,18.10
2022-08-17T22:40:40.151Z,20.15
2022-08-17T22:43:12.512Z,20.33
2022-08-17T22:45:53.182Z,18.05
2022-08-17T22:48:30.168Z,18.85
2022-08-17T22:51:12.561Z,18.63
2022-08-17T22:54:16.178Z,20.70
2022-08-17T22:57:38.239Z,21.92
2022-08-17T23:00:13.194Z,19.88
2022-08-17T23:02:55.349Z,18.67
2022-08-17T23:05:23.995Z,19.67
2022-08-17T23:07:59.198Z,20.25
2022-08-17T23:10:34.199Z,19.50
2022-08-17T23:13:01.301Z,20.27
2022-08-17T23:15:33.819Z,18.08
2022-08-17T23:18:11.180Z,17.45
2022-08-17T23:20:40.187Z,16.42
2022-08-17T23:23:14.477Z,19.65
2022-08-17T23:25:51.174Z,19.73
2022-08-17T23:28:25.165Z,20.33
2022-08-17T23:30:58.192Z,17.35
2022-08-17T23:33:30.885Z,16.92
2022-08-17T23:36:05.224Z,16.80
2022-08-17T23:38:33.203Z,16.67
2022-08-17T23:41:09.178Z,17.02
2022-08-17T23:43:36.294Z,16.83
2022-08-17T23:46:11.003Z,18.60
2022-08-17T23:48:44.189Z,18.27
2022-08-17T23:51:28.187Z,16.92
2022-08-17T23:54:07.963Z,17.48
2022-08-17T23:56:46.215Z,19.02
2022-08-17T23:59:25.197Z,20.52
